Uyuni, Bolivia
Current Conditions -  °F | °C
As of 7:00 PM on Friday 28 Nov 2014 (Local Time) from SLSU Reporting Station
Broken Clouds Broken Clouds  
Wind Chill: 63°   Ceiling: 20000
Heat Index: 63°   Visibility: 6mi
Dew Point: 46°   Wind: 12mph
Humidity: 55%   Direction: 30°NNE
Pressure: 30.33"   Gusts: NA
Location:  20.46°S, 66.83°W
Report Text: SLSU 282300Z 03010KT 9999 FEW020 BKN200 17/08 Q1027
Loading
Personal Weather Stations






























Interactive Weather Map New forecast layout! Learn more

10-Day Weather Forecast

Advertisements
Track Severe Weather on mobile